createdAt,value
2018-01-11T00:02:48.954Z,85.1
2018-01-11T00:13:03.160Z,85.2
2018-01-11T00:23:17.501Z,85.2
2018-01-11T00:33:31.515Z,85.3
2018-01-11T00:43:51.160Z,85.4
2018-01-11T00:54:05.079Z,85.4
2018-01-11T01:04:18.686Z,85.5
2018-01-11T01:14:32.834Z,85.5
2018-01-11T01:24:46.960Z,85.3
2018-01-11T01:35:01.231Z,85.2
2018-01-11T01:45:15.425Z,85.2
2018-01-11T01:55:29.593Z,85.3
2018-01-11T02:05:43.929Z,85.4
2018-01-11T02:15:58.086Z,85.5
2018-01-11T02:26:13.805Z,85.5
2018-01-11T02:36:27.512Z,85.5
2018-01-11T02:46:38.966Z,85.5
2018-01-11T02:57:29.349Z,85.2
2018-01-11T03:07:42.922Z,85.1
2018-01-11T03:17:59.844Z,85.0
2018-01-11T03:28:16.443Z,85.0
2018-01-11T03:38:30.362Z,84.9
2018-01-11T03:48:43.688Z,84.9
2018-01-11T03:58:58.248Z,85.0
2018-01-11T04:09:12.035Z,85.0
2018-01-11T04:19:26.315Z,85.0
2018-01-11T04:29:40.541Z,85.1
2018-01-11T04:40:26.016Z,85.3
2018-01-11T04:50:39.390Z,85.2
2018-01-11T05:00:50.743Z,85.3
2018-01-11T05:11:05.198Z,85.4
2018-01-11T05:21:19.308Z,85.4
2018-01-11T05:31:33.465Z,85.4
2018-01-11T05:41:48.139Z,85.3
2018-01-11T05:52:01.983Z,85.5
2018-01-11T06:02:55.213Z,85.4
2018-01-11T06:13:08.658Z,85.4
2018-01-11T06:23:30.054Z,85.5
2018-01-11T06:33:46.682Z,85.5
2018-01-11T06:44:00.313Z,85.5
2018-01-11T06:54:14.627Z,85.5
2018-01-11T07:04:33.656Z,85.5
2018-01-11T07:14:47.237Z,85.5
2018-01-11T07:25:01.225Z,85.5
2018-01-11T07:35:45.963Z,85.5
2018-01-11T07:46:38.355Z,85.5
2018-01-11T07:56:52.011Z,85.4
2018-01-11T08:07:06.324Z,85.5
2018-01-11T08:17:20.667Z,85.5
2018-01-11T08:27:35.027Z,85.7
2018-01-11T08:37:48.880Z,85.8
2018-01-11T08:48:03.318Z,86.0
2018-01-11T08:58:17.439Z,86.2
2018-01-11T09:08:31.757Z,86.5
2018-01-11T09:18:45.714Z,86.7
2018-01-11T09:29:00.333Z,86.8
2018-01-11T09:39:12.467Z,86.9
2018-01-11T09:49:26.394Z,87.0
2018-01-11T09:59:39.697Z,87.0
2018-01-11T10:10:24.703Z,87.1
2018-01-11T10:20:38.901Z,87.1
2018-01-11T10:30:52.877Z,87.2
2018-01-11T10:41:07.430Z,87.3
2018-01-11T10:51:21.538Z,87.8
2018-01-11T11:01:35.662Z,87.9
2018-01-11T11:11:50.198Z,88.0
2018-01-11T11:22:06.223Z,88.3
2018-01-11T11:32:20.380Z,88.2
2018-01-11T11:42:34.474Z,88.0
2018-01-11T11:53:19.639Z,87.7
2018-01-11T12:03:33.678Z,87.5
2018-01-11T12:13:47.601Z,87.4
2018-01-11T12:24:01.992Z,87.3
2018-01-11T12:34:16.329Z,87.3
2018-01-11T12:44:30.374Z,87.0
2018-01-11T12:54:44.672Z,86.8
2018-01-11T13:04:59.251Z,86.6
2018-01-11T13:15:44.374Z,86.6
2018-01-11T13:25:57.853Z,86.5
2018-01-11T13:36:12.172Z,86.5
2018-01-11T13:46:24.759Z,86.6
2018-01-11T13:56:38.723Z,86.6
2018-01-11T14:06:52.937Z,86.6
2018-01-11T14:27:26.003Z,86.5
2018-01-11T14:37:40.838Z,86.5
2018-01-11T14:47:54.451Z,86.4
2018-01-11T14:58:41.173Z,86.6
2018-01-11T15:08:55.625Z,86.5
2018-01-11T15:19:09.893Z,85.8
2018-01-11T15:29:24.188Z,85.7
2018-01-11T15:39:38.417Z,85.5
2018-01-11T15:49:52.492Z,85.4
2018-01-11T16:00:06.764Z,85.2
2018-01-11T16:10:21.409Z,85.1
2018-01-11T16:20:36.828Z,84.6
2018-01-11T16:30:50.576Z,84.5
2018-01-11T16:41:06.592Z,84.4
2018-01-11T17:01:47.159Z,84.2
2018-01-11T17:12:02.407Z,84.1
2018-01-11T17:22:16.527Z,84.2
2018-01-11T17:32:30.808Z,84.1
2018-01-11T17:43:22.369Z,84.1
2018-01-11T17:53:36.283Z,84.0
2018-01-11T18:03:50.215Z,83.9
2018-01-11T18:14:04.183Z,83.9
2018-01-11T18:24:50.021Z,84.0
2018-01-11T18:45:53.507Z,84.2
2018-01-11T18:56:08.332Z,84.4
2018-01-11T19:16:42.542Z,84.3
2018-01-11T19:26:57.041Z,84.2
2018-01-11T19:37:12.448Z,84.1
2018-01-11T19:47:26.226Z,84.1
2018-01-11T19:57:38.000Z,83.8
2018-01-11T20:07:53.098Z,83.8
2018-01-11T20:18:38.801Z,83.8
2018-01-11T20:39:51.847Z,83.6
2018-01-11T20:50:38.286Z,83.6
2018-01-11T21:00:53.285Z,83.7
2018-01-11T21:11:10.226Z,83.9
2018-01-11T21:21:24.556Z,84.0
2018-01-11T21:41:50.664Z,83.9
2018-01-11T21:52:36.215Z,83.9
2018-01-11T22:02:49.750Z,83.6
2018-01-11T22:13:04.059Z,83.6
2018-01-11T22:23:18.425Z,83.6
2018-01-11T22:33:34.033Z,83.6
2018-01-11T22:43:48.762Z,83.6
2018-01-11T22:54:03.222Z,83.6
2018-01-11T23:04:17.196Z,83.6
2018-01-11T23:14:31.535Z,83.6
2018-01-11T23:24:45.625Z,83.8
2018-01-11T23:35:00.062Z,83.8
2018-01-11T23:45:12.350Z,84.1
2018-01-11T23:55:26.598Z,84.2
